Millville Municipal Airport Millville US
ICAO: KMIV
IATA: MIV
Category: Medium
Scheduled Services: No

Elevation: 85 ft
TransAlt. 18000 ft.

Airport Communications:
APP/DEP:124.6
ASOS:128.125
CTAF:123.65
RDO:123.65
UNICOM:123

KMIV Zoom In..

If you have problems with the map follow the link
https://www.worldairports.se/pages/airport.php?
ICAO=KMIV

Runways:

(A) RW 10 length 6003 ft width 150 ft
ILS 110.90 / hdg 101

(B) RW 14 length 5058 ft width 150 ft
---- / hdg 146

(C) RW 28 length 6003 ft width 150 ft
---- / hdg 281

(D) RW 32 length 5058 ft width 150 ft
---- / hdg 326

Location; KMIV
Day. 16 / Time. 11.54 Zulu
* Altimeter: 29.69
* Temperature: 03° c. 37.4°f.
* Wind from: 290° Speed 13 kn with Gusts up to 25 kn.
Dewpoint: 01° c.
Visibility: 10 Statute Miles.
Clouds: Overcast 1300 ft.

KMIV 161154Z AUTO 29013G25KT 10SM OVC013 03/01 A2969 RMK AO2 SLP053 60008 70121 T00280011 10100 20028 53076


Wind From 290°
Speed 13 kn.

 
 
jpsmedia.com for Web Design worldairports.se 2018   terms of use